Time;durP1;ratioP1;P1;durP2;ratioP2;P2;SDS_P1;SDS_P2;PMS_P1;PMS_P2;Temp;Humidity;BMP_temperature;BMP_pressure;BME280_temperature;BME280_humidity;BME280_pressure;Samples;Min_cycle;Max_cycle;Signal;HPM_P1;HPM_P2
2024/01/22 00:01:38;;;;;;;2.63;1.05;;;;;;;18.84;36.82;100864.44;4916697;28;97073;-70
2024/01/22 00:04:04;;;;;;;1.88;0.93;;;;;;;18.84;37.16;100856.53;4915785;28;96910;-70
2024/01/22 00:06:29;;;;;;;2.60;1.38;;;;;;;18.85;36.90;100844.19;4917745;28;97317;-71
2024/01/22 00:08:56;;;;;;;3.35;2.00;;;;;;;18.83;36.92;100818.66;4913799;28;127352;-70
2024/01/22 00:11:21;;;;;;;1.80;1.30;;;;;;;18.85;37.07;100816.00;4917963;28;100284;-71
2024/01/22 00:13:47;;;;;;;2.35;1.38;;;;;;;18.85;36.96;100808.06;4913917;28;118146;-71
2024/01/22 00:16:12;;;;;;;1.88;1.00;;;;;;;18.85;37.11;100791.34;4898037;28;118450;-70
2024/01/22 00:18:38;;;;;;;2.45;0.88;;;;;;;18.86;36.94;100769.28;4911612;28;97282;-70
2024/01/22 00:21:04;;;;;;;2.10;1.10;;;;;;;18.85;37.07;100781.63;4914878;28;97171;-70
2024/01/22 00:23:29;;;;;;;3.13;1.70;;;;;;;18.86;37.29;100777.22;4917262;28;97599;-70
2024/01/22 00:25:55;;;;;;;1.52;0.75;;;;;;;18.84;37.01;100761.38;4913361;28;97193;-71
2024/01/22 00:28:20;;;;;;;2.90;1.23;;;;;;;18.85;37.35;100779.00;4912361;28;126800;-70
2024/01/22 00:30:46;;;;;;;2.22;1.48;;;;;;;18.86;37.02;100769.28;4913506;28;98395;-71
2024/01/22 00:33:11;;;;;;;2.47;1.42;;;;;;;18.85;36.96;100771.06;4913883;28;96765;-70
2024/01/22 00:35:36;;;;;;;2.47;1.55;;;;;;;18.85;37.14;100765.78;4914679;28;101311;-70
2024/01/22 00:38:02;;;;;;;2.50;1.27;;;;;;;18.86;37.14;100771.94;4912398;28;127632;-71
2024/01/22 00:40:27;;;;;;;3.58;0.98;;;;;;;18.86;37.24;100753.44;4916952;28;98775;-70
2024/01/22 00:42:52;;;;;;;1.88;1.40;;;;;;;18.85;37.00;100739.34;4914240;28;117163;-69
2024/01/22 00:45:18;;;;;;;2.20;0.95;;;;;;;18.86;37.35;100750.78;4916075;28;97192;-71
2024/01/22 00:47:43;;;;;;;2.30;1.52;;;;;;;18.87;37.17;100742.81;4913920;28;118264;-71
2024/01/22 00:50:09;;;;;;;3.28;1.70;;;;;;;18.87;37.18;100731.41;4915076;28;97190;-71
2024/01/22 00:52:34;;;;;;;2.13;0.93;;;;;;;18.86;36.88;100708.50;4914329;28;96921;-70
2024/01/22 00:55:00;;;;;;;2.60;1.63;;;;;;;18.87;37.24;100728.75;4913013;28;97077;-70
2024/01/22 00:57:25;;;;;;;2.30;1.40;;;;;;;18.87;37.44;100719.03;4913413;28;97952;-71
2024/01/22 00:59:50;;;;;;;2.53;1.50;;;;;;;18.87;37.17;100703.19;4912106;28;127929;-71
2024/01/22 01:02:16;;;;;;;2.08;0.98;;;;;;;18.86;37.05;100714.69;4914914;28;116575;-71
2024/01/22 01:04:41;;;;;;;2.05;1.33;;;;;;;18.87;37.18;100710.25;4914935;28;96849;-71
2024/01/22 01:07:07;;;;;;;3.38;1.40;;;;;;;18.87;37.13;100716.41;4913590;28;97405;-69
2024/01/22 01:09:32;;;;;;;2.03;0.90;;;;;;;18.88;37.13;100704.06;4912558;28;99099;-71
2024/01/22 01:11:57;;;;;;;1.75;0.85;;;;;;;18.88;37.31;100733.16;4916105;28;97240;-71
2024/01/22 01:14:24;;;;;;;2.53;1.80;;;;;;;18.89;37.36;100713.72;4915108;28;96978;-70
2024/01/22 01:16:50;;;;;;;1.80;1.10;;;;;;;18.88;37.09;100704.06;4912122;28;97988;-71
2024/01/22 01:19:15;;;;;;;2.53;1.27;;;;;;;18.89;36.97;100697.88;4914863;28;105953;-71
2024/01/22 01:21:40;;;;;;;2.22;1.20;;;;;;;18.88;37.14;100699.66;4913302;28;115530;-70
2024/01/22 01:24:07;;;;;;;2.25;1.25;;;;;;;18.88;37.22;100702.28;4911686;28;96970;-70
2024/01/22 01:26:33;;;;;;;2.17;1.30;;;;;;;18.89;37.40;100711.09;4913623;28;97719;-71
2024/01/22 01:28:58;;;;;;;2.30;1.73;;;;;;;18.89;37.16;100688.16;4912847;28;97984;-71
2024/01/22 01:31:28;;;;;;;2.20;1.08;;;;;;;18.89;37.34;100705.78;4915592;28;96898;-70
2024/01/22 01:33:54;;;;;;;2.47;1.10;;;;;;;18.89;37.46;100708.44;4912920;28;97404;-71
2024/01/22 01:36:19;;;;;;;2.50;0.90;;;;;;;18.89;37.08;100701.38;4912776;28;99059;-71
2024/01/22 01:38:44;;;;;;;1.92;1.15;;;;;;;18.90;37.42;100694.34;4910246;28;125560;-71
2024/01/22 01:41:10;;;;;;;2.90;1.42;;;;;;;18.89;37.44;100705.78;4911983;28;118913;-71
2024/01/22 01:43:35;;;;;;;2.05;1.27;;;;;;;18.90;37.36;100691.69;4912025;28;100832;-71
2024/01/22 01:46:01;;;;;;;1.63;0.98;;;;;;;18.90;37.22;100671.41;4897670;28;119553;-71
2024/01/22 01:48:27;;;;;;;1.42;1.02;;;;;;;18.91;37.55;100674.91;4913646;28;97183;-71
2024/01/22 01:50:55;;;;;;;2.13;1.10;;;;;;;18.90;37.48;100694.34;4913685;28;96834;-71
2024/01/22 01:53:22;;;;;;;2.58;0.85;;;;;;;18.91;37.50;100685.47;4913989;28;96938;-71
2024/01/22 01:55:47;;;;;;;2.38;1.40;;;;;;;18.91;37.29;100682.84;4897170;28;98130;-71
2024/01/22 01:58:14;;;;;;;2.22;1.23;;;;;;;18.90;37.29;100679.34;4912615;28;100194;-71
2024/01/22 02:00:40;;;;;;;1.98;1.38;;;;;;;18.91;37.46;100670.50;4913058;28;97087;-70
2024/01/22 02:03:09;;;;;;;1.67;1.20;;;;;;;18.91;37.35;100652.03;4914690;28;96786;-70
2024/01/22 02:05:34;;;;;;;2.38;1.55;;;;;;;18.92;37.38;100645.81;4915850;28;96858;-71
2024/01/22 02:08:00;;;;;;;1.77;0.93;;;;;;;18.92;37.56;100642.31;4916490;28;126719;-70
2024/01/22 02:10:25;;;;;;;1.58;0.98;;;;;;;18.92;37.47;100642.31;4914511;28;97410;-70
2024/01/22 02:12:51;;;;;;;2.55;1.10;;;;;;;18.91;37.27;100635.28;4913527;28;97661;-71
2024/01/22 02:15:18;;;;;;;2.03;1.00;;;;;;;18.93;37.57;100639.63;4897779;28;97856;-70
2024/01/22 02:17:43;;;;;;;2.10;1.17;;;;;;;18.92;37.51;100622.03;4913272;28;96971;-71
2024/01/22 02:20:09;;;;;;;1.85;1.10;;;;;;;18.92;37.29;100614.09;4891497;28;97118;-70
2024/01/22 02:22:34;;;;;;;1.77;1.17;;;;;;;18.93;37.46;100617.59;4917582;28;97152;-70
2024/01/22 02:25:00;;;;;;;2.33;1.40;;;;;;;18.93;37.45;100604.38;4912968;28;96786;-70
2024/01/22 02:27:25;;;;;;;1.80;0.73;;;;;;;18.93;37.44;100588.53;4914031;28;97960;-71
2024/01/22 02:29:51;;;;;;;1.63;0.82;;;;;;;18.93;37.44;100602.63;4916203;28;96824;-70
2024/01/22 02:32:16;;;;;;;1.73;0.93;;;;;;;18.93;37.62;100604.38;4912111;28;116701;-71
2024/01/22 02:34:41;;;;;;;2.30;1.45;;;;;;;18.93;37.26;100580.59;4915930;28;97459;-71
2024/01/22 02:37:07;;;;;;;2.13;1.23;;;;;;;18.94;37.31;100571.78;4905429;28;97500;-70
2024/01/22 02:39:33;;;;;;;2.20;0.73;;;;;;;18.94;37.58;100571.78;4912785;28;108540;-70
2024/01/22 02:41:58;;;;;;;2.70;0.90;;;;;;;18.95;37.40;100557.66;4902018;28;99254;-70
2024/01/22 02:44:24;;;;;;;1.67;0.93;;;;;;;18.94;37.51;100551.50;4913533;28;97542;-71
2024/01/22 02:46:49;;;;;;;1.52;0.93;;;;;;;18.94;37.70;100529.50;4915523;28;113508;-70
2024/01/22 02:49:14;;;;;;;2.03;1.27;;;;;;;18.94;37.60;100538.28;4913657;28;110515;-70
2024/01/22 02:51:43;;;;;;;1.92;1.17;;;;;;;18.94;37.58;100509.19;4917388;28;97001;-70
2024/01/22 02:54:09;;;;;;;;;;;;;;;18.89;37.64;100512.88;4916246;28;97530;-70
2024/01/22 02:56:34;;;;;;;1.95;1.38;;;;;;;18.89;37.44;100491.75;4918258;28;96798;-71
2024/01/22 02:58:59;;;;;;;2.40;1.02;;;;;;;18.91;37.68;100496.09;4917169;28;96859;-71
2024/01/22 03:01:25;;;;;;;1.48;0.82;;;;;;;18.92;37.74;100489.03;4912473;28;97923;-71
2024/01/22 03:03:50;;;;;;;2.42;1.40;;;;;;;18.92;37.80;100486.38;4912613;28;99878;-70
2024/01/22 03:06:16;;;;;;;1.77;1.05;;;;;;;18.93;37.34;100485.44;4914678;28;103033;-70
2024/01/22 03:08:41;;;;;;;2.10;1.40;;;;;;;18.94;37.74;100488.06;4912872;28;119335;-71
2024/01/22 03:11:07;;;;;;;1.73;1.10;;;;;;;18.94;37.65;100456.34;4915584;28;111906;-71
2024/01/22 03:13:33;;;;;;;1.60;1.23;;;;;;;18.93;37.76;100446.69;4916847;28;97266;-71
2024/01/22 03:15:58;;;;;;;2.05;1.00;;;;;;;18.94;37.61;100453.69;4914392;28;97473;-71
2024/01/22 03:18:23;;;;;;;1.65;0.80;;;;;;;18.94;37.98;100456.34;4913625;28;97463;-70
2024/01/22 03:20:49;;;;;;;1.42;0.52;;;;;;;18.95;37.80;100462.53;4917677;28;98603;-70
2024/01/22 03:23:14;;;;;;;1.63;0.75;;;;;;;18.94;37.79;100443.13;4896859;28;106537;-71
2024/01/22 03:25:40;;;;;;;1.70;1.10;;;;;;;18.96;37.40;100435.16;4912080;28;123283;-70
2024/01/22 03:28:05;;;;;;;3.00;1.00;;;;;;;18.96;37.67;100424.59;4898110;28;98121;-70
2024/01/22 03:30:31;;;;;;;2.22;0.73;;;;;;;18.96;37.66;100429.88;4916641;28;97215;-70
2024/01/22 03:32:56;;;;;;;1.48;0.82;;;;;;;18.96;38.20;100417.53;4914853;28;96887;-71
2024/01/22 03:35:22;;;;;;;1.40;0.90;;;;;;;18.96;37.90;100420.16;4914373;28;125917;-71
2024/01/22 03:37:48;;;;;;;1.63;1.00;;;;;;;18.96;37.97;100421.94;4915936;28;97067;-70
2024/01/22 03:40:14;;;;;;;1.45;1.30;;;;;;;18.97;37.77;100423.69;4914765;28;96740;-71
2024/01/22 03:42:40;;;;;;;2.78;1.20;;;;;;;18.97;37.66;100423.69;4915345;28;97684;-70
2024/01/22 03:45:06;;;;;;;1.63;1.20;;;;;;;18.97;37.53;100416.63;4907028;28;98922;-70
2024/01/22 03:47:31;;;;;;;2.00;1.00;;;;;;;18.97;37.83;100411.34;4913153;28;96866;-69
2024/01/22 03:49:57;;;;;;;2.08;0.82;;;;;;;18.98;37.96;100412.19;4912555;28;96967;-70
2024/01/22 03:52:22;;;;;;;1.10;0.60;;;;;;;18.97;37.77;100413.97;4912822;28;99473;-71
2024/01/22 03:54:48;;;;;;;1.90;1.20;;;;;;;18.98;37.84;100406.91;4915655;28;124163;-70
2024/01/22 03:57:13;;;;;;;1.50;0.68;;;;;;;18.97;37.90;100411.34;4914020;28;96736;-70
2024/01/22 03:59:39;;;;;;;2.47;1.08;;;;;;;18.98;37.97;100406.91;4911887;28;97220;-71
2024/01/22 04:02:05;;;;;;;1.40;0.70;;;;;;;18.98;37.77;100402.50;4910602;28;126851;-70
2024/01/22 04:04:30;;;;;;;1.38;0.73;;;;;;;18.99;37.86;100390.16;4913211;28;97222;-70
2024/01/22 04:06:55;;;;;;;1.35;1.10;;;;;;;18.99;38.02;100398.09;4915605;28;117109;-70
2024/01/22 04:09:21;;;;;;;1.67;1.05;;;;;;;18.98;37.75;100397.22;4912768;28;98180;-70
2024/01/22 04:11:46;;;;;;;1.48;0.98;;;;;;;18.99;37.59;100398.94;4898027;28;100266;-70
2024/01/22 04:14:11;;;;;;;1.33;1.05;;;;;;;18.99;37.69;100395.44;4917669;28;107049;-70
2024/01/22 04:16:37;;;;;;;1.08;0.77;;;;;;;18.99;37.64;100392.78;4920879;28;97889;-70
2024/01/22 04:19:02;;;;;;;2.05;1.17;;;;;;;19.00;37.98;100381.28;4916749;28;117954;-70
2024/01/22 04:21:29;;;;;;;1.02;0.68;;;;;;;19.00;38.10;100373.38;4917392;28;96989;-70
2024/01/22 04:23:54;;;;;;;1.58;1.25;;;;;;;19.00;37.92;100390.13;4918873;28;97774;-70
2024/01/22 04:26:19;;;;;;;1.67;0.70;;;;;;;19.00;37.88;100389.22;4913979;28;96992;-71
2024/01/22 04:28:45;;;;;;;0.63;0.52;;;;;;;19.01;38.17;100388.31;4918946;28;97216;-70
2024/01/22 04:31:12;;;;;;;1.52;1.00;;;;;;;19.00;37.98;100383.94;4914459;28;97321;-71
2024/01/22 04:33:38;;;;;;;1.45;0.63;;;;;;;19.00;38.13;100381.28;4917296;28;98770;-71
2024/01/22 04:36:04;;;;;;;1.95;0.93;;;;;;;19.00;38.15;100381.28;4916182;28;96881;-70
2024/01/22 04:38:30;;;;;;;2.10;1.25;;;;;;;19.01;37.83;100377.75;4916699;28;96936;-70
2024/01/22 04:40:56;;;;;;;1.35;0.85;;;;;;;19.01;38.03;100377.75;4915115;28;97616;-70
2024/01/22 04:43:21;;;;;;;1.20;0.80;;;;;;;19.01;38.08;100378.63;4914075;28;99240;-70
2024/01/22 04:45:48;;;;;;;1.83;1.10;;;;;;;19.01;38.23;100381.25;4916100;28;96942;-70
2024/01/22 04:48:13;;;;;;;2.35;1.02;;;;;;;19.01;38.10;100377.75;4918377;28;97552;-70
2024/01/22 04:50:39;;;;;;;1.67;0.68;;;;;;;19.02;38.22;100374.22;4916975;28;98041;-70
2024/01/22 04:53:04;;;;;;;1.23;0.60;;;;;;;19.01;37.97;100365.41;4917796;28;127142;-71
2024/01/22 04:55:30;;;;;;;1.10;0.63;;;;;;;19.02;37.73;100363.63;4916452;28;96722;-70
2024/01/22 04:57:55;;;;;;;1.23;1.02;;;;;;;19.02;37.98;100358.34;4914844;28;97153;-70
2024/01/22 05:00:21;;;;;;;0.80;0.47;;;;;;;19.02;38.14;100351.28;4916502;28;97202;-69
2024/01/22 05:02:46;;;;;;;2.38;0.82;;;;;;;19.02;38.24;100350.44;4918315;28;96762;-70
2024/01/22 05:05:13;;;;;;;1.08;0.63;;;;;;;19.02;38.12;100343.34;4899728;28;118260;-70
2024/01/22 05:07:38;;;;;;;1.58;0.98;;;;;;;19.03;38.15;100338.91;4916847;28;97325;-70
2024/01/22 05:10:04;;;;;;;1.67;0.95;;;;;;;19.03;38.24;100352.13;4910998;28;97120;-70
2024/01/22 05:12:30;;;;;;;1.33;0.80;;;;;;;19.03;38.00;100320.41;4913777;28;97497;-71
2024/01/22 05:14:56;;;;;;;2.53;1.30;;;;;;;19.03;38.23;100331.84;4914473;28;96953;-70
2024/01/22 05:17:21;;;;;;;1.52;0.77;;;;;;;19.04;38.31;100332.75;4917979;28;97515;-70
2024/01/22 05:19:47;;;;;;;0.80;0.57;;;;;;;19.04;38.24;100332.75;4915188;28;97077;-70
2024/01/22 05:22:13;;;;;;;0.82;0.52;;;;;;;19.03;38.29;100318.63;4914654;28;99968;-69
2024/01/22 05:24:38;;;;;;;1.40;0.93;;;;;;;19.04;38.16;100332.75;4916205;28;97897;-70
2024/01/22 05:27:04;;;;;;;1.48;1.08;;;;;;;19.05;38.09;100328.31;4917245;28;96956;-70
2024/01/22 05:29:30;;;;;;;1.35;0.63;;;;;;;19.05;38.40;100323.88;4911571;28;98539;-70
2024/01/22 05:31:55;;;;;;;1.45;0.77;;;;;;;19.06;38.06;100322.13;4917991;28;97265;-70
2024/01/22 05:34:20;;;;;;;1.40;1.10;;;;;;;19.06;38.20;100324.78;4914993;28;116849;-70
2024/01/22 05:36:46;;;;;;;1.20;0.90;;;;;;;19.05;38.25;100315.94;4917417;28;98057;-70
2024/01/22 05:39:12;;;;;;;1.58;1.10;;;;;;;19.05;38.14;100321.25;4912083;28;112201;-69
2024/01/22 05:41:38;;;;;;;1.25;0.70;;;;;;;19.05;38.25;100329.16;4915025;28;97341;-70
2024/01/22 05:44:03;;;;;;;1.63;0.93;;;;;;;19.05;38.48;100339.75;4913962;28;97347;-69
2024/01/22 05:46:30;;;;;;;1.40;1.00;;;;;;;19.05;38.48;100350.31;4915950;28;96900;-70
2024/01/22 05:48:55;;;;;;;0.90;0.60;;;;;;;19.06;38.35;100341.47;4915609;28;97291;-70
2024/01/22 05:51:20;;;;;;;1.65;1.25;;;;;;;19.06;38.44;100335.34;4912513;28;99506;-70
2024/01/22 05:53:46;;;;;;;1.40;1.08;;;;;;;19.07;38.41;100329.13;4914062;28;97527;-70
2024/01/22 05:56:28;;;;;;;2.70;0.90;;;;;;;19.07;38.39;100347.63;4897647;28;105000;-70
2024/01/22 05:58:54;;;;;;;1.17;0.80;;;;;;;19.06;38.42;100340.63;4913354;28;97878;-70
2024/01/22 06:01:20;;;;;;;1.65;0.57;;;;;;;19.06;38.20;100338.84;4913754;28;97256;-70
2024/01/22 06:03:46;;;;;;;1.05;0.52;;;;;;;19.06;38.53;100349.41;4915236;28;96875;-70
2024/01/22 06:06:12;;;;;;;1.15;1.05;;;;;;;19.07;38.30;100353.78;4913761;28;97719;-69
2024/01/22 06:08:37;;;;;;;0.80;0.65;;;;;;;19.08;38.68;100342.28;4913104;28;97439;-70
2024/01/22 06:11:04;;;;;;;1.23;0.82;;;;;;;19.07;38.27;100353.78;4916269;28;97074;-70
2024/01/22 06:13:31;;;;;;;1.70;0.95;;;;;;;19.08;38.68;100347.59;4913261;28;96751;-70
2024/01/22 06:15:56;;;;;;;1.13;0.95;;;;;;;19.09;38.29;100351.09;4911313;28;98725;-70
2024/01/22 06:18:22;;;;;;;1.20;1.02;;;;;;;19.08;38.74;100341.44;4903764;28;97691;-70
2024/01/22 06:20:47;;;;;;;1.25;0.52;;;;;;;19.08;38.48;100350.22;4916859;28;106485;-71
2024/01/22 06:23:12;;;;;;;1.60;1.08;;;;;;;19.09;38.58;100344.03;4911756;28;96980;-70
2024/01/22 06:25:38;;;;;;;1.45;0.82;;;;;;;19.10;38.46;100331.69;4917076;28;115664;-69
2024/01/22 06:28:03;;;;;;;1.25;1.00;;;;;;;19.09;38.68;100340.50;4910679;28;98038;-70
2024/01/22 06:30:29;;;;;;;1.50;0.95;;;;;;;19.10;38.81;100315.81;4916985;28;97228;-70
2024/01/22 06:32:54;;;;;;;1.38;1.17;;;;;;;19.10;38.53;100315.81;4915413;28;115967;-70
2024/01/22 06:35:19;;;;;;;2.05;0.93;;;;;;;19.09;38.33;100328.19;4909374;28;110273;-70
2024/01/22 06:37:45;;;;;;;1.33;0.65;;;;;;;19.09;38.29;100337.88;4894747;28;98106;-70
2024/01/22 06:40:10;;;;;;;1.13;1.00;;;;;;;19.10;38.60;100335.19;4904411;28;126702;-70
2024/01/22 06:42:36;;;;;;;0.80;0.65;;;;;;;19.12;38.65;100340.41;4915698;28;97332;-70
2024/01/22 06:45:01;;;;;;;1.08;0.90;;;;;;;19.10;38.81;100348.41;4898023;28;117705;-70
2024/01/22 06:47:29;;;;;;;1.77;0.82;;;;;;;19.11;38.57;100357.19;4914155;28;97559;-70
2024/01/22 06:49:55;;;;;;;0.75;0.47;;;;;;;19.12;38.45;100351.00;4914628;28;97035;-70
2024/01/22 06:52:20;;;;;;;0.88;0.65;;;;;;;19.12;38.58;100353.63;4914611;28;96782;-70
2024/01/22 06:54:46;;;;;;;1.70;1.10;;;;;;;19.12;38.33;100365.06;4914294;28;114915;-70
2024/01/22 06:57:11;;;;;;;0.93;0.45;;;;;;;19.12;38.48;100361.56;4908618;28;122917;-70
2024/01/22 06:59:36;;;;;;;1.75;1.17;;;;;;;19.12;38.47;100362.44;4914920;28;98009;-70
2024/01/22 07:02:02;;;;;;;0.65;0.45;;;;;;;19.12;38.47;100365.06;4913134;28;96951;-70
2024/01/22 07:04:28;;;;;;;0.85;0.85;;;;;;;19.13;38.56;100368.59;4914272;28;97130;-70
2024/01/22 07:06:53;;;;;;;0.80;0.63;;;;;;;19.13;38.75;100371.25;4906552;28;98505;-70
2024/01/22 07:09:18;;;;;;;1.17;0.88;;;;;;;19.13;38.73;100377.38;4912715;28;97653;-69
2024/01/22 07:11:44;;;;;;;1.55;1.00;;;;;;;19.14;38.64;100381.75;4910603;28;97062;-70
2024/01/22 07:14:09;;;;;;;0.75;0.52;;;;;;;19.14;38.69;100386.19;4913867;28;116735;-70
2024/01/22 07:16:35;;;;;;;1.63;1.13;;;;;;;19.14;38.81;100388.81;4912854;28;97425;-70
2024/01/22 07:19:00;;;;;;;1.05;0.47;;;;;;;19.14;38.78;100387.03;4910172;28;126579;-70
2024/01/22 07:21:25;;;;;;;1.52;0.50;;;;;;;19.14;38.74;100389.69;4912101;28;115543;-69
2024/01/22 07:23:50;;;;;;;1.08;0.52;;;;;;;19.14;38.90;100384.38;4915313;28;116695;-70
2024/01/22 07:26:16;;;;;;;1.10;0.88;;;;;;;19.14;38.98;100384.38;4911595;28;120225;-70
2024/01/22 07:28:41;;;;;;;1.10;1.00;;;;;;;19.15;38.60;100395.84;4910737;28;112200;-70
2024/01/22 07:31:06;;;;;;;0.90;0.55;;;;;;;19.13;38.88;100385.31;4912574;28;112227;-70
2024/01/22 07:33:32;;;;;;;1.20;0.68;;;;;;;19.15;38.72;100391.41;4914539;28;112661;-70
2024/01/22 07:35:57;;;;;;;0.47;0.32;;;;;;;19.15;39.10;100401.13;4913792;28;97500;-69
2024/01/22 07:38:23;;;;;;;1.10;0.60;;;;;;;19.15;38.64;100401.13;4910988;28;125404;-70
2024/01/22 07:40:48;;;;;;;1.52;0.52;;;;;;;19.16;38.57;100414.31;4925508;28;96838;-70
2024/01/22 07:43:14;;;;;;;1.05;0.93;;;;;;;19.15;38.91;100402.00;4912589;28;97385;-70
2024/01/22 07:45:39;;;;;;;1.15;0.93;;;;;;;19.15;38.79;100399.34;4909898;28;97476;-70
2024/01/22 07:48:05;;;;;;;1.20;0.55;;;;;;;19.16;38.83;100408.13;4922909;28;97358;-69
2024/01/22 07:50:30;;;;;;;1.08;0.50;;;;;;;19.15;38.79;100409.94;4901345;28;96920;-70
2024/01/22 07:52:56;;;;;;;0.75;0.40;;;;;;;19.17;38.83;100418.69;4926025;28;96748;-69
2024/01/22 07:55:21;;;;;;;1.13;1.02;;;;;;;19.17;38.84;100413.38;4921717;28;97482;-70
2024/01/22 07:57:46;;;;;;;1.13;1.02;;;;;;;19.17;38.78;100413.38;4923192;28;127502;-70
2024/01/22 08:00:12;;;;;;;0.98;0.55;;;;;;;19.18;39.15;100414.28;4898295;28;98103;-70
2024/01/22 08:02:41;;;;;;;1.45;0.90;;;;;;;19.17;38.85;100421.31;4923838;28;96810;-70
2024/01/22 08:05:07;;;;;;;0.80;0.50;;;;;;;19.18;39.25;100415.13;4925993;28;99524;-70
2024/01/22 08:07:33;;;;;;;1.40;0.47;;;;;;;19.18;39.11;100420.41;4899939;28;97145;-70
2024/01/22 08:09:58;;;;;;;1.05;0.95;;;;;;;19.18;38.88;100411.63;4906001;28;96999;-70
2024/01/22 08:12:24;;;;;;;1.05;0.52;;;;;;;19.18;39.26;100420.41;4924253;28;97269;-70
2024/01/22 08:14:49;;;;;;;1.25;1.00;;;;;;;19.18;39.19;100415.13;4921490;28;127453;-69
2024/01/22 08:17:14;;;;;;;1.10;0.45;;;;;;;19.19;39.04;100414.19;4930400;28;123436;-70
2024/01/22 08:19:40;;;;;;;1.08;0.52;;;;;;;19.19;39.08;100405.41;4907779;28;117467;-69
2024/01/22 08:22:05;;;;;;;1.40;1.00;;;;;;;19.19;39.30;100416.84;4930805;28;112474;-69
2024/01/22 08:24:31;;;;;;;1.13;0.85;;;;;;;19.20;38.92;100417.72;4919766;28;97299;-69
2024/01/22 08:26:57;;;;;;;0.70;0.60;;;;;;;19.20;39.10;100418.59;4930867;28;97245;-70
2024/01/22 08:29:22;;;;;;;1.15;0.82;;;;;;;19.20;38.96;100426.53;4897579;28;96786;-69
2024/01/22 08:31:48;;;;;;;0.85;0.43;;;;;;;19.20;39.34;100434.44;4929565;28;96885;-70
2024/01/22 08:34:13;;;;;;;1.23;1.10;;;;;;;19.20;39.17;100439.75;4918644;28;125413;-70
2024/01/22 08:36:39;;;;;;;1.33;0.98;;;;;;;19.21;39.28;100430.03;4919880;28;97423;-70
2024/01/22 08:39:04;;;;;;;1.25;0.90;;;;;;;19.21;38.93;100460.00;4935397;28;97228;-70
2024/01/22 08:41:30;;;;;;;0.75;0.45;;;;;;;19.21;39.23;100454.72;4903711;28;97021;-70
2024/01/22 08:43:56;;;;;;;0.95;0.85;;;;;;;19.21;39.28;100441.50;4920638;28;96837;-70
2024/01/22 08:46:22;;;;;;;0.73;0.45;;;;;;;19.23;39.30;100428.19;4914360;28;96854;-70
2024/01/22 08:48:48;;;;;;;0.63;0.43;;;;;;;19.23;39.25;100433.47;4921787;28;98038;-69
2024/01/22 08:51:14;;;;;;;1.13;1.02;;;;;;;19.24;39.22;100439.66;4930968;28;96942;-69
2024/01/22 08:53:39;;;;;;;0.70;0.40;;;;;;;19.25;39.38;100438.72;4922662;28;97975;-69
2024/01/22 08:56:05;;;;;;;0.93;0.43;;;;;;;19.25;39.19;100436.97;4922366;28;96791;-70
2024/01/22 08:58:31;;;;;;;0.85;0.60;;;;;;;19.25;39.36;100436.97;4907020;28;97113;-69
2024/01/22 09:00:56;;;;;;;1.83;0.60;;;;;;;19.25;39.42;100436.09;4908659;28;96973;-69
2024/01/22 09:03:24;;;;;;;1.58;0.80;;;;;;;19.26;39.36;100440.47;4921877;28;126870;-69
2024/01/22 09:05:50;;;;;;;1.17;0.43;;;;;;;19.26;39.58;100451.06;4919712;28;97371;-70
2024/01/22 09:08:16;;;;;;;1.40;0.93;;;;;;;19.26;39.79;100453.69;4926100;28;97082;-69
2024/01/22 09:10:41;;;;;;;1.10;0.75;;;;;;;19.26;39.31;100449.25;4904269;28;96783;-69
2024/01/22 09:13:08;;;;;;;1.48;0.68;;;;;;;19.26;39.52;100451.06;4923770;28;97547;-70
2024/01/22 09:15:34;;;;;;;2.08;0.80;;;;;;;19.27;39.33;100450.13;4905674;28;97353;-70
2024/01/22 09:17:59;;;;;;;1.83;0.80;;;;;;;19.26;39.33;100441.34;4925360;28;96974;-70
2024/01/22 09:20:24;;;;;;;1.33;0.70;;;;;;;19.28;39.21;100438.66;4926863;28;97200;-70
2024/01/22 09:22:50;;;;;;;1.02;0.60;;;;;;;19.26;39.52;100437.81;4921562;28;97656;-70
2024/01/22 09:25:16;;;;;;;1.48;0.55;;;;;;;19.27;39.48;100432.50;4911669;28;125145;-70
2024/01/22 09:27:42;;;;;;;1.08;0.45;;;;;;;19.28;39.57;100436.84;4924002;28;96898;-70
2024/01/22 09:30:07;;;;;;;1.33;0.75;;;;;;;19.28;39.67;100431.56;4907665;28;96998;-70
2024/01/22 09:32:33;;;;;;;1.83;0.80;;;;;;;19.30;39.73;100426.25;4923843;28;96877;-70
2024/01/22 09:34:58;;;;;;;2.50;0.90;;;;;;;19.29;39.71;100419.25;4919640;28;105856;-70
2024/01/22 09:37:25;;;;;;;1.13;0.90;;;;;;;19.29;39.40;100413.94;4923722;28;96667;-70
2024/01/22 09:39:50;;;;;;;1.75;0.63;;;;;;;19.29;39.91;100419.25;4928050;28;96774;-70
2024/01/22 09:42:16;;;;;;;1.25;0.95;;;;;;;19.29;39.66;100404.22;4921149;28;97519;-69
2024/01/22 09:44:44;;;;;;;1.38;0.63;;;;;;;19.30;39.73;100407.72;4922172;28;97338;-70
2024/01/22 09:47:10;;;;;;;1.48;1.13;;;;;;;19.30;39.60;100416.53;4931419;28;98548;-70
2024/01/22 09:49:36;;;;;;;1.40;0.45;;;;;;;19.30;39.80;100429.75;4929871;28;97010;-70
2024/01/22 09:52:03;;;;;;;1.55;0.98;;;;;;;19.30;39.39;100421.81;4931047;28;97666;-70
2024/01/22 09:54:30;;;;;;;1.35;1.00;;;;;;;19.31;39.51;100422.69;4913522;28;97764;-70
2024/01/22 09:56:57;;;;;;;1.13;0.60;;;;;;;19.31;39.96;100423.56;4930176;28;97065;-70
2024/01/22 09:59:27;;;;;;;1.48;0.57;;;;;;;19.32;39.73;100427.06;4918199;28;96822;-70
2024/01/22 10:01:53;;;;;;;1.95;0.60;;;;;;;19.32;39.50;100424.41;4913958;28;98045;-70
2024/01/22 10:04:19;;;;;;;2.88;0.93;;;;;;;19.32;39.91;100429.69;4913523;28;97974;-70
2024/01/22 10:06:46;;;;;;;2.83;0.85;;;;;;;19.33;39.69;100442.03;4931867;28;97140;-70
2024/01/22 10:09:15;;;;;;;1.27;0.73;;;;;;;19.33;39.62;100428.81;4924730;28;99023;-70
2024/01/22 10:11:42;;;;;;;2.40;1.20;;;;;;;19.32;39.92;100440.28;4927993;28;97815;-70
2024/01/22 10:14:08;;;;;;;4.18;1.20;;;;;;;19.32;39.64;100445.56;4911087;28;98656;-70
2024/01/22 10:16:35;;;;;;;1.63;0.80;;;;;;;19.32;39.99;100461.44;4913994;28;97255;-69
2024/01/22 10:19:07;;;;;;;1.70;0.88;;;;;;;19.33;39.99;100537.22;4930409;28;97599;-70
2024/01/22 10:21:33;;;;;;;1.75;0.80;;;;;;;19.34;39.71;100536.28;4911460;28;100869;-70
2024/01/22 10:24:01;;;;;;;2.20;0.90;;;;;;;19.33;40.03;100551.31;4930054;28;97215;-70
2024/01/22 10:26:28;;;;;;;3.13;1.02;;;;;;;19.34;39.76;100565.38;4929497;28;97244;-70
2024/01/22 10:28:54;;;;;;;1.75;0.63;;;;;;;19.34;39.83;100555.69;4918392;28;96939;-70
2024/01/22 10:31:19;;;;;;;2.10;0.85;;;;;;;19.35;39.84;100556.56;4928870;28;97652;-69
2024/01/22 10:33:46;;;;;;;3.00;0.77;;;;;;;19.34;40.13;100553.06;4930738;28;96973;-70
2024/01/22 10:36:19;;;;;;;1.42;1.05;;;;;;;19.34;39.85;100566.28;4913504;28;96905;-70
2024/01/22 10:38:46;;;;;;;2.00;0.70;;;;;;;19.34;40.08;100560.97;4930315;28;97032;-70
2024/01/22 10:41:20;;;;;;;1.73;0.57;;;;;;;19.35;39.72;100575.06;4930470;28;96755;-70
2024/01/22 10:43:46;;;;;;;3.00;0.68;;;;;;;19.35;39.90;100581.22;4929887;28;97220;-70
2024/01/22 10:46:12;;;;;;;2.08;0.63;;;;;;;19.36;39.91;100582.09;4929089;28;96863;-70
2024/01/22 10:48:38;;;;;;;3.70;1.00;;;;;;;19.36;39.89;100592.69;4922455;28;96922;-70
2024/01/22 10:51:06;;;;;;;2.92;1.15;;;;;;;19.36;39.96;100582.09;4918588;28;97558;-70
2024/01/22 10:53:32;;;;;;;2.63;0.80;;;;;;;19.36;40.09;100593.53;4929797;28;96768;-70
2024/01/22 10:56:01;;;;;;;2.03;0.73;;;;;;;19.37;40.27;100589.09;4930769;28;96769;-70
2024/01/22 10:58:32;;;;;;;1.67;0.88;;;;;;;19.36;40.10;100580.31;4930300;28;97794;-70
2024/01/22 11:01:01;;;;;;;3.10;0.93;;;;;;;19.37;40.15;100599.69;4906727;28;98487;-70
2024/01/22 11:03:30;;;;;;;2.13;0.73;;;;;;;19.37;40.22;100586.47;4930320;28;97283;-70
2024/01/22 11:06:03;;;;;;;;;;;;;;;19.31;40.20;100579.56;4911443;28;96914;-69
2024/01/22 11:08:30;;;;;;;2.45;0.85;;;;;;;19.32;40.02;100597.19;4929927;28;96798;-70
2024/01/22 11:10:56;;;;;;;2.03;0.70;;;;;;;19.35;40.24;100596.22;4929256;28;97561;-70
2024/01/22 11:13:22;;;;;;;3.63;0.90;;;;;;;19.37;40.22;100594.41;4929780;28;97232;-70
2024/01/22 11:15:47;;;;;;;1.92;1.10;;;;;;;19.36;39.90;100598.81;4929148;28;96908;-70
2024/01/22 11:18:13;;;;;;;2.22;0.85;;;;;;;19.37;40.11;100597.03;4926469;28;96953;-69